sensor_id;sensor_type;location;lat;lon;timestamp;temperature;humidity
46898;DHT22;32646;50.958;6.258;2023-05-10T00:00:29;12.60;99.90
46898;DHT22;32646;50.958;6.258;2023-05-10T00:02:55;12.60;99.90
46898;DHT22;32646;50.958;6.258;2023-05-10T00:05:22;12.60;99.90
46898;DHT22;32646;50.958;6.258;2023-05-10T00:07:49;12.60;99.90
46898;DHT22;32646;50.958;6.258;2023-05-10T00:10:15;12.60;99.90
46898;DHT22;32646;50.958;6.258;2023-05-10T00:12:42;12.60;99.90
46898;DHT22;32646;50.958;6.258;2023-05-10T00:15:09;12.60;99.90
46898;DHT22;32646;50.958;6.258;2023-05-10T00:17:35;12.50;99.90
46898;DHT22;32646;50.958;6.258;2023-05-10T00:20:02;12.60;99.90
46898;DHT22;32646;50.958;6.258;2023-05-10T00:22:29;12.50;99.90
46898;DHT22;32646;50.958;6.258;2023-05-10T00:24:55;12.50;99.90
46898;DHT22;32646;50.958;6.258;2023-05-10T00:27:22;12.50;99.90
46898;DHT22;32646;50.958;6.258;2023-05-10T00:29:48;12.60;99.90
46898;DHT22;32646;50.958;6.258;2023-05-10T00:32:15;12.60;99.90
46898;DHT22;32646;50.958;6.258;2023-05-10T00:34:42;12.60;99.90
46898;DHT22;32646;50.958;6.258;2023-05-10T00:37:08;12.60;99.90
46898;DHT22;32646;50.958;6.258;2023-05-10T00:39:35;12.60;99.90
46898;DHT22;32646;50.958;6.258;2023-05-10T00:42:02;12.70;99.90
46898;DHT22;32646;50.958;6.258;2023-05-10T00:44:28;12.70;99.90
46898;DHT22;32646;50.958;6.258;2023-05-10T00:46:55;12.70;99.90
46898;DHT22;32646;50.958;6.258;2023-05-10T00:49:21;12.70;99.90
46898;DHT22;32646;50.958;6.258;2023-05-10T00:51:48;12.70;99.90
46898;DHT22;32646;50.958;6.258;2023-05-10T00:54:15;12.70;99.90
46898;DHT22;32646;50.958;6.258;2023-05-10T00:56:42;12.70;99.90
46898;DHT22;32646;50.958;6.258;2023-05-10T00:59:08;12.70;99.90
46898;DHT22;32646;50.958;6.258;2023-05-10T01:01:35;12.70;99.90
46898;DHT22;32646;50.958;6.258;2023-05-10T01:04:02;12.70;99.90
46898;DHT22;32646;50.958;6.258;2023-05-10T01:06:29;12.70;99.90
46898;DHT22;32646;50.958;6.258;2023-05-10T01:08:56;12.60;99.90
46898;DHT22;32646;50.958;6.258;2023-05-10T01:11:22;12.60;99.90
46898;DHT22;32646;50.958;6.258;2023-05-10T01:13:54;12.60;99.90
46898;DHT22;32646;50.958;6.258;2023-05-10T01:16:22;12.60;99.90
46898;DHT22;32646;50.958;6.258;2023-05-10T01:18:49;12.60;99.90
46898;DHT22;32646;50.958;6.258;2023-05-10T01:32:51;12.50;99.90
46898;DHT22;32646;50.958;6.258;2023-05-10T01:38:09;12.50;99.90
46898;DHT22;32646;50.958;6.258;2023-05-10T01:40:50;12.50;99.90
46898;DHT22;32646;50.958;6.258;2023-05-10T01:43:22;12.50;99.90
46898;DHT22;32646;50.958;6.258;2023-05-10T01:45:59;12.60;99.90
46898;DHT22;32646;50.958;6.258;2023-05-10T01:48:28;12.50;99.90
46898;DHT22;32646;50.958;6.258;2023-05-10T01:50:55;12.50;99.90
46898;DHT22;32646;50.958;6.258;2023-05-10T01:53:22;12.60;99.90
46898;DHT22;32646;50.958;6.258;2023-05-10T01:55:52;12.50;99.90
46898;DHT22;32646;50.958;6.258;2023-05-10T01:58:27;12.60;99.90
46898;DHT22;32646;50.958;6.258;2023-05-10T02:00:54;12.50;99.90
46898;DHT22;32646;50.958;6.258;2023-05-10T02:03:23;12.60;99.90
46898;DHT22;32646;50.958;6.258;2023-05-10T02:05:52;12.60;99.90
46898;DHT22;32646;50.958;6.258;2023-05-10T02:08:21;12.60;99.90
46898;DHT22;32646;50.958;6.258;2023-05-10T02:10:49;12.60;99.90
46898;DHT22;32646;50.958;6.258;2023-05-10T02:13:17;12.60;99.90
46898;DHT22;32646;50.958;6.258;2023-05-10T02:15:46;12.60;99.90
46898;DHT22;32646;50.958;6.258;2023-05-10T02:18:13;12.60;99.90
46898;DHT22;32646;50.958;6.258;2023-05-10T02:20:42;12.60;99.90
46898;DHT22;32646;50.958;6.258;2023-05-10T02:23:09;12.60;99.90
46898;DHT22;32646;50.958;6.258;2023-05-10T02:25:37;12.60;99.90
46898;DHT22;32646;50.958;6.258;2023-05-10T02:28:06;12.70;99.90
46898;DHT22;32646;50.958;6.258;2023-05-10T02:30:34;12.70;99.90
46898;DHT22;32646;50.958;6.258;2023-05-10T02:33:03;12.60;99.90
46898;DHT22;32646;50.958;6.258;2023-05-10T02:35:30;12.70;99.90
46898;DHT22;32646;50.958;6.258;2023-05-10T02:37:58;12.60;99.90
46898;DHT22;32646;50.958;6.258;2023-05-10T02:40:26;12.60;99.90
46898;DHT22;32646;50.958;6.258;2023-05-10T02:42:55;12.70;99.90
46898;DHT22;32646;50.958;6.258;2023-05-10T02:45:25;12.70;99.90
46898;DHT22;32646;50.958;6.258;2023-05-10T02:47:53;12.70;99.90
46898;DHT22;32646;50.958;6.258;2023-05-10T02:50:21;12.60;99.90
46898;DHT22;32646;50.958;6.258;2023-05-10T02:52:51;12.70;99.90
46898;DHT22;32646;50.958;6.258;2023-05-10T02:55:21;12.60;99.90
46898;DHT22;32646;50.958;6.258;2023-05-10T02:57:56;12.60;99.90
46898;DHT22;32646;50.958;6.258;2023-05-10T03:00:25;12.50;99.90
46898;DHT22;32646;50.958;6.258;2023-05-10T03:02:52;12.50;99.90
46898;DHT22;32646;50.958;6.258;2023-05-10T03:05:19;12.40;99.90
46898;DHT22;32646;50.958;6.258;2023-05-10T03:07:46;12.40;99.90
46898;DHT22;32646;50.958;6.258;2023-05-10T03:10:13;12.40;99.90
46898;DHT22;32646;50.958;6.258;2023-05-10T03:18:37;12.40;99.90
46898;DHT22;32646;50.958;6.258;2023-05-10T03:21:11;12.40;99.90
46898;DHT22;32646;50.958;6.258;2023-05-10T03:23:47;12.40;99.90
46898;DHT22;32646;50.958;6.258;2023-05-10T03:26:25;12.40;99.90
46898;DHT22;32646;50.958;6.258;2023-05-10T03:28:52;12.40;99.90
46898;DHT22;32646;50.958;6.258;2023-05-10T03:31:19;12.40;99.90
46898;DHT22;32646;50.958;6.258;2023-05-10T03:33:47;12.40;99.90
46898;DHT22;32646;50.958;6.258;2023-05-10T03:36:14;12.40;99.90
46898;DHT22;32646;50.958;6.258;2023-05-10T03:38:40;12.40;99.90
46898;DHT22;32646;50.958;6.258;2023-05-10T03:41:07;12.30;99.90
46898;DHT22;32646;50.958;6.258;2023-05-10T03:43:34;12.30;99.90
46898;DHT22;32646;50.958;6.258;2023-05-10T03:46:04;12.30;99.90
46898;DHT22;32646;50.958;6.258;2023-05-10T03:48:33;12.30;99.90
46898;DHT22;32646;50.958;6.258;2023-05-10T03:50:59;12.30;99.90
46898;DHT22;32646;50.958;6.258;2023-05-10T03:53:26;12.30;99.90
46898;DHT22;32646;50.958;6.258;2023-05-10T03:55:53;12.30;99.90
46898;DHT22;32646;50.958;6.258;2023-05-10T03:58:19;12.20;99.90
46898;DHT22;32646;50.958;6.258;2023-05-10T04:00:46;12.20;99.90
46898;DHT22;32646;50.958;6.258;2023-05-10T04:03:13;12.20;99.90
46898;DHT22;32646;50.958;6.258;2023-05-10T04:05:40;12.20;99.90
46898;DHT22;32646;50.958;6.258;2023-05-10T04:08:06;12.20;99.90
46898;DHT22;32646;50.958;6.258;2023-05-10T04:10:33;12.20;99.90
46898;DHT22;32646;50.958;6.258;2023-05-10T04:12:59;12.20;99.90
46898;DHT22;32646;50.958;6.258;2023-05-10T04:15:26;12.20;99.90
46898;DHT22;32646;50.958;6.258;2023-05-10T04:17:52;12.20;99.90
46898;DHT22;32646;50.958;6.258;2023-05-10T04:20:19;12.20;99.90
46898;DHT22;32646;50.958;6.258;2023-05-10T04:22:46;12.20;99.90
46898;DHT22;32646;50.958;6.258;2023-05-10T04:25:12;12.20;99.90
46898;DHT22;32646;50.958;6.258;2023-05-10T04:27:39;12.10;99.90
46898;DHT22;32646;50.958;6.258;2023-05-10T04:30:06;12.20;99.90
46898;DHT22;32646;50.958;6.258;2023-05-10T04:32:32;12.10;99.90
46898;DHT22;32646;50.958;6.258;2023-05-10T04:34:59;12.20;99.90
46898;DHT22;32646;50.958;6.258;2023-05-10T04:37:26;12.20;99.90
46898;DHT22;32646;50.958;6.258;2023-05-10T04:39:52;12.20;99.90
46898;DHT22;32646;50.958;6.258;2023-05-10T04:42:19;12.20;99.90
46898;DHT22;32646;50.958;6.258;2023-05-10T04:44:45;12.20;99.90
46898;DHT22;32646;50.958;6.258;2023-05-10T04:47:12;12.20;99.90
46898;DHT22;32646;50.958;6.258;2023-05-10T04:49:38;12.20;99.90
46898;DHT22;32646;50.958;6.258;2023-05-10T04:52:05;12.20;99.90
46898;DHT22;32646;50.958;6.258;2023-05-10T04:54:31;12.20;99.90
46898;DHT22;32646;50.958;6.258;2023-05-10T04:56:58;12.20;99.90
46898;DHT22;32646;50.958;6.258;2023-05-10T04:59:24;12.20;99.90
46898;DHT22;32646;50.958;6.258;2023-05-10T05:01:51;12.30;99.90
46898;DHT22;32646;50.958;6.258;2023-05-10T05:04:17;12.20;99.90
46898;DHT22;32646;50.958;6.258;2023-05-10T05:06:44;12.20;99.90
46898;DHT22;32646;50.958;6.258;2023-05-10T05:09:10;12.20;99.90
46898;DHT22;32646;50.958;6.258;2023-05-10T05:11:37;12.30;99.90
46898;DHT22;32646;50.958;6.258;2023-05-10T05:14:03;12.30;99.90
46898;DHT22;32646;50.958;6.258;2023-05-10T05:16:30;12.30;99.90
46898;DHT22;32646;50.958;6.258;2023-05-10T05:18:57;12.30;99.90
46898;DHT22;32646;50.958;6.258;2023-05-10T05:21:23;12.30;99.90
46898;DHT22;32646;50.958;6.258;2023-05-10T05:23:50;12.30;99.90
46898;DHT22;32646;50.958;6.258;2023-05-10T05:26:16;12.30;99.90
46898;DHT22;32646;50.958;6.258;2023-05-10T05:28:43;12.30;99.90
46898;DHT22;32646;50.958;6.258;2023-05-10T05:31:10;12.30;99.90
46898;DHT22;32646;50.958;6.258;2023-05-10T05:33:36;12.40;99.90
46898;DHT22;32646;50.958;6.258;2023-05-10T05:36:04;12.30;99.90
46898;DHT22;32646;50.958;6.258;2023-05-10T05:38:31;12.40;99.90
46898;DHT22;32646;50.958;6.258;2023-05-10T05:40:58;12.40;99.90
46898;DHT22;32646;50.958;6.258;2023-05-10T05:43:25;12.40;99.90
46898;DHT22;32646;50.958;6.258;2023-05-10T05:45:55;12.50;99.90
46898;DHT22;32646;50.958;6.258;2023-05-10T05:48:21;12.50;99.90
46898;DHT22;32646;50.958;6.258;2023-05-10T05:50:48;12.50;99.90
46898;DHT22;32646;50.958;6.258;2023-05-10T05:53:14;12.50;99.90
46898;DHT22;32646;50.958;6.258;2023-05-10T05:55:54;12.50;99.90
46898;DHT22;32646;50.958;6.258;2023-05-10T05:58:22;12.50;99.90
46898;DHT22;32646;50.958;6.258;2023-05-10T06:00:48;12.50;99.90
46898;DHT22;32646;50.958;6.258;2023-05-10T06:03:15;12.50;99.90
46898;DHT22;32646;50.958;6.258;2023-05-10T06:05:42;12.50;99.90
46898;DHT22;32646;50.958;6.258;2023-05-10T06:08:42;12.50;99.90
46898;DHT22;32646;50.958;6.258;2023-05-10T06:11:22;12.50;99.90
46898;DHT22;32646;50.958;6.258;2023-05-10T06:13:48;12.50;99.90
46898;DHT22;32646;50.958;6.258;2023-05-10T06:16:15;12.40;99.90
46898;DHT22;32646;50.958;6.258;2023-05-10T06:18:42;12.50;99.90
46898;DHT22;32646;50.958;6.258;2023-05-10T06:21:08;12.50;99.90
46898;DHT22;32646;50.958;6.258;2023-05-10T06:23:35;12.50;99.90
46898;DHT22;32646;50.958;6.258;2023-05-10T06:26:01;12.50;99.90
46898;DHT22;32646;50.958;6.258;2023-05-10T06:28:28;12.50;99.90
46898;DHT22;32646;50.958;6.258;2023-05-10T06:30:54;12.50;99.90
46898;DHT22;32646;50.958;6.258;2023-05-10T06:33:21;12.50;99.90
46898;DHT22;32646;50.958;6.258;2023-05-10T06:35:47;12.50;99.90
46898;DHT22;32646;50.958;6.258;2023-05-10T06:38:14;12.50;99.90
46898;DHT22;32646;50.958;6.258;2023-05-10T06:40:43;12.60;99.90
46898;DHT22;32646;50.958;6.258;2023-05-10T06:43:10;12.60;99.90
46898;DHT22;32646;50.958;6.258;2023-05-10T06:45:37;12.60;99.90
46898;DHT22;32646;50.958;6.258;2023-05-10T06:48:03;12.60;99.90
46898;DHT22;32646;50.958;6.258;2023-05-10T06:50:30;12.70;99.90
46898;DHT22;32646;50.958;6.258;2023-05-10T06:52:56;12.70;99.90
46898;DHT22;32646;50.958;6.258;2023-05-10T06:55:23;12.70;99.90
46898;DHT22;32646;50.958;6.258;2023-05-10T06:57:49;12.70;99.90
46898;DHT22;32646;50.958;6.258;2023-05-10T07:00:17;12.80;99.90
46898;DHT22;32646;50.958;6.258;2023-05-10T07:02:44;12.80;99.90
46898;DHT22;32646;50.958;6.258;2023-05-10T07:05:11;13.00;99.90
46898;DHT22;32646;50.958;6.258;2023-05-10T07:07:37;13.10;99.90
46898;DHT22;32646;50.958;6.258;2023-05-10T07:10:04;13.10;99.90
46898;DHT22;32646;50.958;6.258;2023-05-10T07:12:31;13.30;99.90
46898;DHT22;32646;50.958;6.258;2023-05-10T07:14:58;13.40;99.90
46898;DHT22;32646;50.958;6.258;2023-05-10T07:17:24;13.40;99.90
46898;DHT22;32646;50.958;6.258;2023-05-10T07:19:51;13.20;99.90
46898;DHT22;32646;50.958;6.258;2023-05-10T07:22:18;13.20;99.90
46898;DHT22;32646;50.958;6.258;2023-05-10T07:24:44;12.90;99.90
46898;DHT22;32646;50.958;6.258;2023-05-10T07:27:11;13.00;99.90
46898;DHT22;32646;50.958;6.258;2023-05-10T07:29:38;12.90;99.90
46898;DHT22;32646;50.958;6.258;2023-05-10T07:32:06;13.00;99.90
46898;DHT22;32646;50.958;6.258;2023-05-10T07:34:32;13.00;99.90
46898;DHT22;32646;50.958;6.258;2023-05-10T07:36:59;13.00;99.90
46898;DHT22;32646;50.958;6.258;2023-05-10T07:39:26;13.00;99.90
46898;DHT22;32646;50.958;6.258;2023-05-10T07:41:54;13.00;99.90
46898;DHT22;32646;50.958;6.258;2023-05-10T07:44:21;13.00;99.90
46898;DHT22;32646;50.958;6.258;2023-05-10T07:46:48;13.10;99.90
46898;DHT22;32646;50.958;6.258;2023-05-10T07:49:16;13.00;99.90
46898;DHT22;32646;50.958;6.258;2023-05-10T07:51:42;13.10;99.90
46898;DHT22;32646;50.958;6.258;2023-05-10T07:54:09;13.00;99.90
46898;DHT22;32646;50.958;6.258;2023-05-10T07:56:35;12.90;99.90
46898;DHT22;32646;50.958;6.258;2023-05-10T07:59:03;12.80;99.90
46898;DHT22;32646;50.958;6.258;2023-05-10T08:01:31;12.80;99.90
46898;DHT22;32646;50.958;6.258;2023-05-10T08:03:57;12.80;99.90
46898;DHT22;32646;50.958;6.258;2023-05-10T08:06:24;12.70;99.90
46898;DHT22;32646;50.958;6.258;2023-05-10T08:08:51;12.70;99.90
46898;DHT22;32646;50.958;6.258;2023-05-10T08:11:17;12.70;99.90
46898;DHT22;32646;50.958;6.258;2023-05-10T08:13:44;12.80;99.90
46898;DHT22;32646;50.958;6.258;2023-05-10T08:16:11;12.80;99.90
46898;DHT22;32646;50.958;6.258;2023-05-10T08:18:39;12.70;99.90
46898;DHT22;32646;50.958;6.258;2023-05-10T08:21:06;12.80;99.90
46898;DHT22;32646;50.958;6.258;2023-05-10T08:23:32;12.80;99.90
46898;DHT22;32646;50.958;6.258;2023-05-10T08:25:59;12.80;99.90
46898;DHT22;32646;50.958;6.258;2023-05-10T08:28:26;12.70;99.90
46898;DHT22;32646;50.958;6.258;2023-05-10T08:30:52;12.70;99.90
46898;DHT22;32646;50.958;6.258;2023-05-10T08:33:19;12.80;99.90
46898;DHT22;32646;50.958;6.258;2023-05-10T08:35:46;13.00;99.90
46898;DHT22;32646;50.958;6.258;2023-05-10T08:38:12;13.00;99.90
46898;DHT22;32646;50.958;6.258;2023-05-10T08:40:42;13.00;99.90
46898;DHT22;32646;50.958;6.258;2023-05-10T08:43:11;12.90;99.90
46898;DHT22;32646;50.958;6.258;2023-05-10T08:45:40;13.00;99.90
46898;DHT22;32646;50.958;6.258;2023-05-10T08:48:08;13.10;99.90
46898;DHT22;32646;50.958;6.258;2023-05-10T08:50:40;13.10;99.90
46898;DHT22;32646;50.958;6.258;2023-05-10T08:53:10;13.10;99.90
46898;DHT22;32646;50.958;6.258;2023-05-10T08:55:37;13.30;99.90
46898;DHT22;32646;50.958;6.258;2023-05-10T08:58:07;13.40;99.90
46898;DHT22;32646;50.958;6.258;2023-05-10T09:00:34;13.30;99.90
46898;DHT22;32646;50.958;6.258;2023-05-10T09:03:02;13.40;99.90
46898;DHT22;32646;50.958;6.258;2023-05-10T09:05:29;13.50;99.90
46898;DHT22;32646;50.958;6.258;2023-05-10T09:07:55;13.40;99.90
46898;DHT22;32646;50.958;6.258;2023-05-10T09:10:23;13.50;99.90
46898;DHT22;32646;50.958;6.258;2023-05-10T09:12:52;13.60;99.90
46898;DHT22;32646;50.958;6.258;2023-05-10T09:15:19;13.60;99.90
46898;DHT22;32646;50.958;6.258;2023-05-10T09:17:47;13.70;99.90
46898;DHT22;32646;50.958;6.258;2023-05-10T09:20:15;13.80;99.90
46898;DHT22;32646;50.958;6.258;2023-05-10T09:22:42;13.80;99.90
46898;DHT22;32646;50.958;6.258;2023-05-10T09:25:15;13.70;99.90
46898;DHT22;32646;50.958;6.258;2023-05-10T09:27:47;13.70;99.90
46898;DHT22;32646;50.958;6.258;2023-05-10T09:30:23;13.50;99.90
46898;DHT22;32646;50.958;6.258;2023-05-10T09:32:50;13.40;99.90
46898;DHT22;32646;50.958;6.258;2023-05-10T09:35:27;13.20;99.90
46898;DHT22;32646;50.958;6.258;2023-05-10T09:37:57;13.00;99.90
46898;DHT22;32646;50.958;6.258;2023-05-10T09:40:26;12.80;99.90
46898;DHT22;32646;50.958;6.258;2023-05-10T09:43:03;12.90;99.90
46898;DHT22;32646;50.958;6.258;2023-05-10T09:45:35;13.10;99.90
46898;DHT22;32646;50.958;6.258;2023-05-10T09:48:05;13.20;99.90
46898;DHT22;32646;50.958;6.258;2023-05-10T09:50:33;13.50;99.90
46898;DHT22;32646;50.958;6.258;2023-05-10T09:53:02;13.50;99.90
46898;DHT22;32646;50.958;6.258;2023-05-10T09:55:40;13.30;99.90
46898;DHT22;32646;50.958;6.258;2023-05-10T09:58:08;13.30;99.90
46898;DHT22;32646;50.958;6.258;2023-05-10T10:00:41;13.40;99.90
46898;DHT22;32646;50.958;6.258;2023-05-10T10:03:20;13.40;99.90
46898;DHT22;32646;50.958;6.258;2023-05-10T10:05:47;13.50;99.90
46898;DHT22;32646;50.958;6.258;2023-05-10T10:08:15;13.50;99.90
46898;DHT22;32646;50.958;6.258;2023-05-10T10:10:43;13.60;99.90
46898;DHT22;32646;50.958;6.258;2023-05-10T10:13:11;13.60;99.90
46898;DHT22;32646;50.958;6.258;2023-05-10T10:15:38;13.70;99.90
46898;DHT22;32646;50.958;6.258;2023-05-10T10:18:05;13.70;99.90
46898;DHT22;32646;50.958;6.258;2023-05-10T10:20:31;13.70;99.90
46898;DHT22;32646;50.958;6.258;2023-05-10T10:22:58;13.90;99.90
46898;DHT22;32646;50.958;6.258;2023-05-10T10:25:25;14.30;99.90
46898;DHT22;32646;50.958;6.258;2023-05-10T10:30:27;14.10;99.90
46898;DHT22;32646;50.958;6.258;2023-05-10T10:35:54;14.40;99.90
46898;DHT22;32646;50.958;6.258;2023-05-10T10:38:22;14.10;99.90
46898;DHT22;32646;50.958;6.258;2023-05-10T10:41:08;14.50;99.90
46898;DHT22;32646;50.958;6.258;2023-05-10T10:43:35;14.40;99.90
46898;DHT22;32646;50.958;6.258;2023-05-10T10:46:13;14.30;99.90
46898;DHT22;32646;50.958;6.258;2023-05-10T10:49:09;14.20;99.90
46898;DHT22;32646;50.958;6.258;2023-05-10T10:51:37;14.50;99.90
46898;DHT22;32646;50.958;6.258;2023-05-10T10:54:11;14.40;99.90
46898;DHT22;32646;50.958;6.258;2023-05-10T10:56:38;14.60;99.90
46898;DHT22;32646;50.958;6.258;2023-05-10T10:59:05;14.70;99.90
46898;DHT22;32646;50.958;6.258;2023-05-10T11:01:34;14.50;99.90
46898;DHT22;32646;50.958;6.258;2023-05-10T11:06:35;14.50;99.90
46898;DHT22;32646;50.958;6.258;2023-05-10T11:09:10;14.70;99.90
46898;DHT22;32646;50.958;6.258;2023-05-10T11:11:50;14.60;99.90
46898;DHT22;32646;50.958;6.258;2023-05-10T11:14:20;14.70;99.90
46898;DHT22;32646;50.958;6.258;2023-05-10T11:16:47;14.60;99.90
46898;DHT22;32646;50.958;6.258;2023-05-10T11:19:15;14.70;99.90
46898;DHT22;32646;50.958;6.258;2023-05-10T11:24:32;14.70;99.90
46898;DHT22;32646;50.958;6.258;2023-05-10T11:26:59;14.90;99.90
46898;DHT22;32646;50.958;6.258;2023-05-10T11:29:26;15.60;99.90
46898;DHT22;32646;50.958;6.258;2023-05-10T11:31:56;15.90;99.90
46898;DHT22;32646;50.958;6.258;2023-05-10T11:34:25;16.00;99.90
46898;DHT22;32646;50.958;6.258;2023-05-10T11:36:55;15.90;99.90
46898;DHT22;32646;50.958;6.258;2023-05-10T11:39:27;16.20;99.90
46898;DHT22;32646;50.958;6.258;2023-05-10T11:41:54;16.70;99.90
46898;DHT22;32646;50.958;6.258;2023-05-10T11:44:21;16.90;99.90
46898;DHT22;32646;50.958;6.258;2023-05-10T11:46:49;16.90;99.90
46898;DHT22;32646;50.958;6.258;2023-05-10T11:49:17;16.60;99.90
46898;DHT22;32646;50.958;6.258;2023-05-10T11:51:44;16.70;99.90
46898;DHT22;32646;50.958;6.258;2023-05-10T11:54:11;16.90;99.90
46898;DHT22;32646;50.958;6.258;2023-05-10T11:56:40;16.90;99.90
46898;DHT22;32646;50.958;6.258;2023-05-10T11:59:08;17.10;99.90
46898;DHT22;32646;50.958;6.258;2023-05-10T12:01:35;16.90;99.90
46898;DHT22;32646;50.958;6.258;2023-05-10T12:04:02;16.80;99.90
46898;DHT22;32646;50.958;6.258;2023-05-10T12:06:31;16.70;99.90
46898;DHT22;32646;50.958;6.258;2023-05-10T12:08:58;17.20;99.90
46898;DHT22;32646;50.958;6.258;2023-05-10T12:11:26;17.00;99.90
46898;DHT22;32646;50.958;6.258;2023-05-10T12:13:53;16.80;99.90
46898;DHT22;32646;50.958;6.258;2023-05-10T12:16:25;16.70;99.90
46898;DHT22;32646;50.958;6.258;2023-05-10T12:18:53;16.80;99.90
46898;DHT22;32646;50.958;6.258;2023-05-10T12:21:21;16.90;99.90
46898;DHT22;32646;50.958;6.258;2023-05-10T12:23:52;17.20;99.90
46898;DHT22;32646;50.958;6.258;2023-05-10T12:26:23;17.30;99.90
46898;DHT22;32646;50.958;6.258;2023-05-10T12:28:50;17.20;99.90
46898;DHT22;32646;50.958;6.258;2023-05-10T12:31:17;17.60;99.90
46898;DHT22;32646;50.958;6.258;2023-05-10T12:33:44;17.90;99.90
46898;DHT22;32646;50.958;6.258;2023-05-10T12:36:12;17.60;99.90
46898;DHT22;32646;50.958;6.258;2023-05-10T12:38:40;17.40;99.90
46898;DHT22;32646;50.958;6.258;2023-05-10T12:41:12;17.90;99.90
46898;DHT22;32646;50.958;6.258;2023-05-10T12:43:39;18.00;99.90
46898;DHT22;32646;50.958;6.258;2023-05-10T12:46:08;18.50;99.90
46898;DHT22;32646;50.958;6.258;2023-05-10T12:48:35;18.70;99.90
46898;DHT22;32646;50.958;6.258;2023-05-10T12:51:03;18.20;99.90
46898;DHT22;32646;50.958;6.258;2023-05-10T12:53:30;18.10;99.90
46898;DHT22;32646;50.958;6.258;2023-05-10T12:55:57;18.50;99.90
46898;DHT22;32646;50.958;6.258;2023-05-10T12:58:24;18.40;99.90
46898;DHT22;32646;50.958;6.258;2023-05-10T13:01:01;17.80;99.90
46898;DHT22;32646;50.958;6.258;2023-05-10T13:03:29;17.40;99.90
46898;DHT22;32646;50.958;6.258;2023-05-10T13:05:56;17.10;99.90
46898;DHT22;32646;50.958;6.258;2023-05-10T13:08:24;17.00;99.90
46898;DHT22;32646;50.958;6.258;2023-05-10T13:10:51;16.80;99.90
46898;DHT22;32646;50.958;6.258;2023-05-10T13:13:17;16.80;99.90
46898;DHT22;32646;50.958;6.258;2023-05-10T13:15:46;17.00;99.90
46898;DHT22;32646;50.958;6.258;2023-05-10T13:18:13;17.00;99.90
46898;DHT22;32646;50.958;6.258;2023-05-10T13:20:39;16.70;99.90
46898;DHT22;32646;50.958;6.258;2023-05-10T13:23:06;16.70;99.90
46898;DHT22;32646;50.958;6.258;2023-05-10T13:25:32;16.80;99.90
46898;DHT22;32646;50.958;6.258;2023-05-10T13:27:59;17.30;99.90
46898;DHT22;32646;50.958;6.258;2023-05-10T13:30:26;17.80;99.90
46898;DHT22;32646;50.958;6.258;2023-05-10T13:33:00;18.10;99.90
46898;DHT22;32646;50.958;6.258;2023-05-10T13:35:26;18.70;98.10
46898;DHT22;32646;50.958;6.258;2023-05-10T13:37:53;18.30;96.20
46898;DHT22;32646;50.958;6.258;2023-05-10T13:40:19;19.10;99.10
46898;DHT22;32646;50.958;6.258;2023-05-10T13:42:46;19.20;94.40
46898;DHT22;32646;50.958;6.258;2023-05-10T13:45:15;19.50;95.50
46898;DHT22;32646;50.958;6.258;2023-05-10T13:47:44;19.50;96.50
46898;DHT22;32646;50.958;6.258;2023-05-10T13:50:11;19.40;91.20
46898;DHT22;32646;50.958;6.258;2023-05-10T13:52:38;19.10;93.10
46898;DHT22;32646;50.958;6.258;2023-05-10T13:55:05;18.90;94.20
46898;DHT22;32646;50.958;6.258;2023-05-10T13:57:31;18.40;95.90
46898;DHT22;32646;50.958;6.258;2023-05-10T13:59:58;18.30;94.00
46898;DHT22;32646;50.958;6.258;2023-05-10T14:02:24;18.20;97.70
46898;DHT22;32646;50.958;6.258;2023-05-10T14:04:53;18.20;96.20
46898;DHT22;32646;50.958;6.258;2023-05-10T14:07:20;17.70;99.90
46898;DHT22;32646;50.958;6.258;2023-05-10T14:09:46;17.80;99.70
46898;DHT22;32646;50.958;6.258;2023-05-10T14:12:13;17.80;99.90
46898;DHT22;32646;50.958;6.258;2023-05-10T14:14:42;17.70;98.50
46898;DHT22;32646;50.958;6.258;2023-05-10T14:17:08;17.50;99.90
46898;DHT22;32646;50.958;6.258;2023-05-10T14:19:37;17.40;99.90
46898;DHT22;32646;50.958;6.258;2023-05-10T14:22:04;17.60;99.90
46898;DHT22;32646;50.958;6.258;2023-05-10T14:24:31;17.10;99.90
46898;DHT22;32646;50.958;6.258;2023-05-10T14:26:57;17.00;99.90
46898;DHT22;32646;50.958;6.258;2023-05-10T14:29:24;17.20;99.90
46898;DHT22;32646;50.958;6.258;2023-05-10T14:31:51;17.10;99.90
46898;DHT22;32646;50.958;6.258;2023-05-10T14:34:17;17.40;99.90
46898;DHT22;32646;50.958;6.258;2023-05-10T14:36:44;17.40;99.90
46898;DHT22;32646;50.958;6.258;2023-05-10T14:39:10;17.50;99.90
46898;DHT22;32646;50.958;6.258;2023-05-10T14:41:37;17.50;98.60
46898;DHT22;32646;50.958;6.258;2023-05-10T14:44:04;17.50;99.70
46898;DHT22;32646;50.958;6.258;2023-05-10T14:46:30;17.20;99.90
46898;DHT22;32646;50.958;6.258;2023-05-10T14:48:57;17.70;99.90
46898;DHT22;32646;50.958;6.258;2023-05-10T14:51:23;17.50;99.90
46898;DHT22;32646;50.958;6.258;2023-05-10T14:53:50;17.60;99.50
46898;DHT22;32646;50.958;6.258;2023-05-10T14:56:17;17.40;99.90
46898;DHT22;32646;50.958;6.258;2023-05-10T14:58:43;17.40;99.00
46898;DHT22;32646;50.958;6.258;2023-05-10T15:01:10;17.40;99.90
46898;DHT22;32646;50.958;6.258;2023-05-10T15:03:37;17.30;99.90
46898;DHT22;32646;50.958;6.258;2023-05-10T15:06:05;17.00;99.90
46898;DHT22;32646;50.958;6.258;2023-05-10T15:08:31;17.10;99.90
46898;DHT22;32646;50.958;6.258;2023-05-10T15:10:58;17.30;99.90
46898;DHT22;32646;50.958;6.258;2023-05-10T15:13:24;16.90;99.50
46898;DHT22;32646;50.958;6.258;2023-05-10T15:15:51;16.70;99.90
46898;DHT22;32646;50.958;6.258;2023-05-10T15:18:18;16.70;99.90
46898;DHT22;32646;50.958;6.258;2023-05-10T15:20:44;16.60;99.90
46898;DHT22;32646;50.958;6.258;2023-05-10T15:23:11;16.50;99.90
46898;DHT22;32646;50.958;6.258;2023-05-10T15:25:37;16.60;99.90
46898;DHT22;32646;50.958;6.258;2023-05-10T15:28:04;16.40;99.90
46898;DHT22;32646;50.958;6.258;2023-05-10T15:30:31;16.40;99.90
46898;DHT22;32646;50.958;6.258;2023-05-10T15:32:57;16.50;99.90
46898;DHT22;32646;50.958;6.258;2023-05-10T15:35:26;16.50;99.90
46898;DHT22;32646;50.958;6.258;2023-05-10T15:37:52;16.40;99.90
46898;DHT22;32646;50.958;6.258;2023-05-10T15:40:19;16.30;99.90
46898;DHT22;32646;50.958;6.258;2023-05-10T15:42:45;16.30;99.90
46898;DHT22;32646;50.958;6.258;2023-05-10T15:45:12;16.30;99.90
46898;DHT22;32646;50.958;6.258;2023-05-10T15:47:39;16.40;99.90
46898;DHT22;32646;50.958;6.258;2023-05-10T15:50:06;16.60;99.90
46898;DHT22;32646;50.958;6.258;2023-05-10T15:52:33;16.70;99.90
46898;DHT22;32646;50.958;6.258;2023-05-10T15:55:00;16.70;99.90
46898;DHT22;32646;50.958;6.258;2023-05-10T15:57:26;16.70;99.90
46898;DHT22;32646;50.958;6.258;2023-05-10T15:59:53;16.60;99.90
46898;DHT22;32646;50.958;6.258;2023-05-10T16:02:20;16.40;99.90
46898;DHT22;32646;50.958;6.258;2023-05-10T16:04:46;16.60;99.90